Time;durP1;ratioP1;P1;durP2;ratioP2;P2;SDS_P1;SDS_P2;PMS_P1;PMS_P2;Temp;Humidity;BMP_temperature;BMP_pressure;BME280_temperature;BME280_humidity;BME280_pressure;Samples;Min_cycle;Max_cycle;Signal;HPM_P1;HPM_P2
2022/03/29 00:01:43;;;;;;;23.35;10.95;;;7.80;99.90;;;;;;4254881;27;20046;-88
2022/03/29 00:03:44;;;;;;;18.05;10.00;;;6.90;99.90;;;;;;4236275;27;20075;-89
2022/03/29 00:05:44;;;;;;;21.58;10.93;;;7.70;99.90;;;;;;4221235;28;20043;-89
2022/03/29 00:07:45;;;;;;;19.67;10.70;;;8.80;99.90;;;;;;4259651;27;20034;-88
2022/03/29 00:09:46;;;;;;;19.55;10.13;;;7.90;99.90;;;;;;4225098;28;20048;-89
2022/03/29 00:11:47;;;;;;;22.35;10.68;;;8.00;99.90;;;;;;4254035;27;20460;-89
2022/03/29 00:13:47;;;;;;;23.10;9.98;;;8.10;99.90;;;;;;4218072;28;20047;-89
2022/03/29 00:15:50;;;;;;;19.52;10.70;;;8.60;99.90;;;;;;4254737;27;20041;-88
2022/03/29 00:17:51;;;;;;;25.67;11.07;;;8.50;99.90;;;;;;4240943;27;20100;-89
2022/03/29 00:19:52;;;;;;;20.77;10.43;;;8.60;99.90;;;;;;4233130;27;20491;-89
2022/03/29 00:21:52;;;;;;;23.13;10.15;;;8.40;99.90;;;;;;4230521;27;20112;-90
2022/03/29 00:23:53;;;;;;;23.00;11.55;;;7.60;99.90;;;;;;4234942;27;20385;-88
2022/03/29 00:25:54;;;;;;;21.88;11.02;;;7.80;99.90;;;;;;4222341;28;20114;-88
2022/03/29 00:27:55;;;;;;;26.48;11.35;;;;;;;;;;4242533;27;20501;-88
2022/03/29 00:29:57;;;;;;;28.65;11.98;;;7.70;99.90;;;;;;4255270;27;20428;-88
2022/03/29 00:31:58;;;;;;;22.25;10.32;;;8.20;99.90;;;;;;4263880;27;20065;-88
2022/03/29 00:33:59;;;;;;;24.17;11.55;;;7.20;99.90;;;;;;4224707;28;20059;-89
2022/03/29 00:36:00;;;;;;;22.80;10.30;;;7.90;99.90;;;;;;4257607;27;20023;-89
2022/03/29 00:38:02;;;;;;;23.23;10.88;;;7.70;99.90;;;;;;4227859;28;20540;-89
2022/03/29 00:40:03;;;;;;;21.10;11.25;;;7.80;99.90;;;;;;4224918;28;20044;-89
2022/03/29 00:42:04;;;;;;;21.35;10.90;;;7.60;99.90;;;;;;4216474;28;20052;-89
2022/03/29 00:44:06;;;;;;;26.70;11.55;;;7.50;99.90;;;;;;4221968;28;20044;-87
2022/03/29 00:46:07;;;;;;;26.33;10.82;;;7.50;99.90;;;;;;4217768;28;20040;-88
2022/03/29 00:48:08;;;;;;;26.15;11.55;;;7.80;99.90;;;;;;4253220;27;20398;-88
2022/03/29 00:50:09;;;;;;;22.48;10.82;;;8.00;99.90;;;;;;4254522;27;20038;-89
2022/03/29 00:52:11;;;;;;;22.92;11.93;;;7.50;99.90;;;;;;4241732;27;20400;-87
2022/03/29 00:54:12;;;;;;;23.98;10.75;;;7.50;99.90;;;;;;4246904;27;20066;-88
2022/03/29 00:56:13;;;;;;;22.20;11.50;;;7.50;99.90;;;;;;4242669;27;20418;-88
2022/03/29 00:58:15;;;;;;;21.33;11.10;;;8.70;99.90;;;;;;4239704;27;20039;-88
2022/03/29 01:00:16;;;;;;;22.63;10.77;;;7.60;99.90;;;;;;4253773;27;20483;-88
2022/03/29 01:02:17;;;;;;;18.92;10.45;;;7.40;99.90;;;;;;4240571;27;20039;-88
2022/03/29 01:04:18;;;;;;;21.83;11.00;;;7.40;99.90;;;;;;4255503;27;20046;-89
2022/03/29 01:06:18;;;;;;;22.98;11.35;;;7.40;99.90;;;;;;4240978;27;20493;-89
2022/03/29 01:08:22;;;;;;;26.00;11.93;;;7.40;99.90;;;;;;4253070;27;20035;-88
2022/03/29 01:10:23;;;;;;;24.75;11.70;;;7.80;99.90;;;;;;4219857;28;20066;-87
2022/03/29 01:12:29;;;;;;;22.90;10.75;;;8.60;99.90;;;;;;4224732;28;20051;-89
2022/03/29 01:14:31;;;;;;;22.52;10.90;;;7.80;99.90;;;;;;4252782;27;20043;-89
2022/03/29 01:18:55;;;;;;;22.83;11.23;;;8.00;99.90;;;;;;4251886;27;20039;-89
2022/03/29 01:20:58;;;;;;;23.08;10.82;;;7.40;99.90;;;;;;4234843;27;20039;-89
2022/03/29 01:23:01;;;;;;;28.13;11.73;;;7.40;99.90;;;;;;4223951;28;20439;-88
2022/03/29 01:25:03;;;;;;;22.83;10.65;;;7.40;99.90;;;;;;4237379;27;20148;-89
2022/03/29 01:27:05;;;;;;;22.63;10.68;;;7.40;99.90;;;;;;4233383;27;20051;-88
2022/03/29 01:29:07;;;;;;;26.42;11.32;;;8.20;99.90;;;;;;4240638;27;20458;-88
2022/03/29 01:31:10;;;;;;;24.63;11.32;;;7.40;99.90;;;;;;4238104;27;20504;-87
2022/03/29 01:33:11;;;;;;;24.40;11.80;;;8.40;99.90;;;;;;4254395;27;20039;-88
2022/03/29 01:35:13;;;;;;;22.35;11.43;;;7.40;99.90;;;;;;4232497;27;20050;-88
2022/03/29 01:37:14;;;;;;;20.67;10.50;;;7.70;99.90;;;;;;4242530;27;20043;-88
2022/03/29 01:39:15;;;;;;;25.13;11.60;;;7.40;99.90;;;;;;4219698;28;20484;-88
2022/03/29 01:41:17;;;;;;;21.73;10.18;;;8.40;99.90;;;;;;4217632;28;20060;-88
2022/03/29 01:43:18;;;;;;;19.77;9.45;;;8.60;99.90;;;;;;4235497;27;20075;-88
2022/03/29 01:45:21;;;;;;;20.23;10.63;;;8.50;99.90;;;;;;4251111;27;20062;-88
2022/03/29 01:47:24;;;;;;;23.23;10.63;;;7.60;99.90;;;;;;4244584;27;20051;-89
2022/03/29 01:49:25;;;;;;;22.88;10.10;;;8.20;99.90;;;;;;4243486;27;20042;-88
2022/03/29 01:51:26;;;;;;;26.70;10.98;;;7.90;99.90;;;;;;4235425;27;20040;-88
2022/03/29 01:53:28;;;;;;;33.15;11.10;;;7.50;99.90;;;;;;4236325;27;20174;-88
2022/03/29 01:55:28;;;;;;;23.52;10.40;;;7.60;99.90;;;;;;4260543;27;20183;-88
2022/03/29 01:57:30;;;;;;;23.83;11.07;;;8.00;99.90;;;;;;4242351;27;20099;-88
2022/03/29 02:01:54;;;;;;;29.17;11.23;;;7.30;99.90;;;;;;4249099;27;20561;-87
2022/03/29 02:03:54;;;;;;;26.20;11.40;;;7.30;99.90;;;;;;4252358;27;20039;-88
2022/03/29 02:05:55;;;;;;;23.35;10.18;;;7.10;99.90;;;;;;4253308;27;20502;-87
2022/03/29 02:07:57;;;;;;;20.88;10.02;;;7.30;99.90;;;;;;4236125;27;20040;-88
2022/03/29 02:09:58;;;;;;;24.92;10.80;;;7.30;99.90;;;;;;4236757;28;20047;-89
2022/03/29 02:11:59;;;;;;;20.17;10.27;;;8.50;99.90;;;;;;4247959;28;20043;-89
2022/03/29 02:14:01;;;;;;;22.90;9.55;;;7.30;99.90;;;;;;4227017;28;20040;-89
2022/03/29 02:16:03;;;;;;;24.10;10.93;;;7.20;99.90;;;;;;4232544;28;20047;-88
2022/03/29 02:18:06;;;;;;;23.95;11.10;;;7.20;99.90;;;;;;4245958;28;20043;-88
2022/03/29 02:20:07;;;;;;;24.45;9.82;;;7.20;99.90;;;;;;4243184;28;20065;-88
2022/03/29 02:22:08;;;;;;;23.30;11.05;;;7.20;99.90;;;;;;4249938;28;20059;-88
2022/03/29 02:24:09;;;;;;;19.42;9.70;;;7.20;99.90;;;;;;4229716;28;20483;-88
2022/03/29 02:26:10;;;;;;;21.00;9.25;;;7.10;99.90;;;;;;4247538;28;20084;-89
2022/03/29 02:28:11;;;;;;;25.92;10.65;;;7.20;99.90;;;;;;4231068;28;20043;-89
2022/03/29 02:30:14;;;;;;;23.75;11.07;;;7.20;99.90;;;;;;4229025;28;20130;-89
2022/03/29 02:32:15;;;;;;;22.48;10.13;;;7.20;99.90;;;;;;4232233;28;20577;-89
2022/03/29 02:34:16;;;;;;;20.23;10.23;;;8.20;99.90;;;;;;4230202;28;20134;-89
2022/03/29 02:36:16;;;;;;;20.90;11.20;;;8.10;99.90;;;;;;4251108;28;20491;-91
2022/03/29 02:38:18;;;;;;;24.10;10.75;;;8.40;99.90;;;;;;4244767;28;20047;-89
2022/03/29 02:40:18;;;;;;;23.15;10.88;;;6.40;99.90;;;;;;4234575;28;20046;-89
2022/03/29 02:42:19;;;;;;;21.67;10.57;;;8.40;99.90;;;;;;4246282;28;20075;-89
2022/03/29 02:44:20;;;;;;;24.65;10.48;;;8.20;99.90;;;;;;4245197;28;20043;-89
2022/03/29 02:46:20;;;;;;;20.33;9.82;;;7.50;99.90;;;;;;4241605;28;20035;-89
2022/03/29 02:48:22;;;;;;;26.60;11.23;;;7.20;99.90;;;;;;4225582;28;20048;-89
2022/03/29 02:50:24;;;;;;;23.05;11.10;;;7.20;99.90;;;;;;4242012;28;20181;-89
2022/03/29 02:52:25;;;;;;;22.15;11.15;;;8.20;99.90;;;;;;4244493;27;20047;-89
2022/03/29 02:54:26;;;;;;;24.48;10.90;;;6.70;99.90;;;;;;4235089;27;20050;-89
2022/03/29 02:56:28;;;;;;;23.88;10.68;;;7.10;99.90;;;;;;4245725;27;20467;-88
2022/03/29 02:58:29;;;;;;;24.35;10.77;;;7.20;99.90;;;;;;4245285;27;20418;-89
2022/03/29 03:00:29;;;;;;;23.13;11.18;;;7.10;99.90;;;;;;4238279;27;20040;-89
2022/03/29 03:02:31;;;;;;;25.00;11.05;;;7.70;99.90;;;;;;4234465;27;20039;-88
2022/03/29 03:04:33;;;;;;;21.42;10.50;;;7.10;99.90;;;;;;4236507;27;20396;-87
2022/03/29 03:06:34;;;;;;;23.20;11.90;;;8.20;99.90;;;;;;4255940;27;20049;-89
2022/03/29 03:08:36;;;;;;;27.70;12.48;;;7.10;99.90;;;;;;4219729;28;20071;-87
2022/03/29 03:10:37;;;;;;;28.63;10.98;;;8.10;99.90;;;;;;4236847;27;20047;-89
2022/03/29 03:12:41;;;;;;;26.95;11.18;;;7.50;99.90;;;;;;4233310;28;20424;-90
2022/03/29 03:14:43;;;;;;;22.42;10.52;;;7.20;99.90;;;;;;4261472;27;20489;-89
2022/03/29 03:16:44;;;;;;;19.17;10.15;;;8.40;99.90;;;;;;4250140;27;20046;-90
2022/03/29 03:18:45;;;;;;;28.42;11.07;;;8.60;99.90;;;;;;4245391;27;20383;-89
2022/03/29 03:20:46;;;;;;;30.67;13.43;;;7.80;99.90;;;;;;4232614;28;20047;-88
2022/03/29 03:22:46;;;;;;;31.90;12.57;;;7.90;99.90;;;;;;4252014;27;20538;-89
2022/03/29 03:24:48;;;;;;;25.83;12.23;;;7.30;99.90;;;;;;4246839;27;20090;-87
2022/03/29 03:26:49;;;;;;;23.83;11.85;;;8.20;99.90;;;;;;4254950;27;20035;-88
2022/03/29 03:28:50;;;;;;;23.85;11.10;;;7.30;99.90;;;;;;4255476;27;20135;-87
2022/03/29 03:30:53;;;;;;;30.98;12.13;;;7.30;99.90;;;;;;4263660;27;20158;-87
2022/03/29 03:32:54;;;;;;;27.38;12.20;;;8.60;99.90;;;;;;4215978;28;20036;-88
2022/03/29 03:34:57;;;;;;;24.15;11.85;;;7.30;99.90;;;;;;4239978;27;20101;-88
2022/03/29 03:37:00;;;;;;;22.30;10.65;;;7.40;99.90;;;;;;4245001;27;20047;-90
2022/03/29 03:39:02;;;;;;;24.05;11.00;;;7.40;99.90;;;;;;4242205;27;20039;-89
2022/03/29 03:41:02;;;;;;;29.48;12.02;;;7.30;99.90;;;;;;4245555;27;20062;-89
2022/03/29 03:43:03;;;;;;;24.27;10.88;;;7.30;99.90;;;;;;4234073;27;20074;-90
2022/03/29 03:45:07;;;;;;;23.55;11.38;;;7.30;99.90;;;;;;4244089;27;20051;-90
2022/03/29 03:47:10;;;;;;;23.52;11.48;;;7.30;99.90;;;;;;4231364;28;20284;-88
2022/03/29 03:49:11;;;;;;;23.27;11.77;;;7.30;99.90;;;;;;4265759;27;20062;-89
2022/03/29 03:51:13;;;;;;;26.30;12.73;;;7.30;99.90;;;;;;4229435;28;22862;-89
2022/03/29 03:53:14;;;;;;;22.05;11.38;;;7.60;99.90;;;;;;4240211;27;20090;-89
2022/03/29 03:55:15;;;;;;;24.75;10.98;;;7.30;99.90;;;;;;4217427;28;20047;-89
2022/03/29 03:57:18;;;;;;;25.75;11.75;;;7.30;99.90;;;;;;4228317;28;20043;-88
2022/03/29 03:59:19;;;;;;;36.40;12.48;;;7.30;99.90;;;;;;4245988;27;20039;-89
2022/03/29 04:01:20;;;;;;;27.08;11.73;;;7.30;99.90;;;;;;4244588;27;20483;-90
2022/03/29 04:03:21;;;;;;;25.92;11.88;;;8.40;99.90;;;;;;4230783;28;20175;-89
2022/03/29 04:05:21;;;;;;;23.25;11.80;;;7.20;99.90;;;;;;4240366;27;20440;-89
2022/03/29 04:07:22;;;;;;;24.98;11.75;;;8.30;99.90;;;;;;4254112;27;20046;-89
2022/03/29 04:09:25;;;;;;;25.08;12.57;;;7.80;99.90;;;;;;4263142;27;20050;-89
2022/03/29 04:11:26;;;;;;;25.35;11.00;;;7.80;99.90;;;;;;4237923;27;20521;-89
2022/03/29 04:13:27;;;;;;;24.33;11.88;;;8.30;99.90;;;;;;4254990;27;20490;-89
2022/03/29 04:15:28;;;;;;;26.23;11.00;;;7.20;99.90;;;;;;4250492;27;20046;-89
2022/03/29 04:17:29;;;;;;;27.45;13.32;;;7.20;99.90;;;;;;4243219;27;20144;-89
2022/03/29 04:19:31;;;;;;;24.15;11.82;;;7.20;99.90;;;;;;4231706;28;20044;-89
2022/03/29 04:21:32;;;;;;;24.80;12.07;;;7.20;99.90;;;;;;4232416;28;20160;-89
2022/03/29 04:23:35;;;;;;;24.63;11.68;;;7.80;99.90;;;;;;4232448;28;20089;-91
2022/03/29 04:25:38;;;;;;;30.17;12.70;;;8.30;99.90;;;;;;4232685;28;20055;-89
2022/03/29 04:27:38;;;;;;;24.10;10.90;;;7.70;99.90;;;;;;4216310;28;20567;-90
2022/03/29 04:29:39;;;;;;;35.13;12.50;;;7.70;99.90;;;;;;4221693;28;20040;-89
2022/03/29 04:31:40;;;;;;;27.40;12.82;;;7.20;99.90;;;;;;4219814;28;20050;-90
2022/03/29 04:33:44;;;;;;;28.88;12.88;;;7.30;99.90;;;;;;4215855;28;20133;-89
2022/03/29 04:35:44;;;;;;;27.85;12.50;;;7.20;99.90;;;;;;4232345;28;20422;-89
2022/03/29 04:37:45;;;;;;;27.25;12.65;;;7.20;99.90;;;;;;4215410;28;20036;-89
2022/03/29 04:39:47;;;;;;;29.27;13.57;;;7.20;99.90;;;;;;4214938;28;20131;-89
2022/03/29 04:41:47;;;;;;;28.02;12.00;;;7.20;99.90;;;;;;4220342;28;20071;-89
2022/03/29 04:43:48;;;;;;;27.90;13.52;;;7.20;99.90;;;;;;4215655;28;20055;-90
2022/03/29 04:45:50;;;;;;;27.80;12.07;;;7.20;99.90;;;;;;4215326;28;20044;-89
2022/03/29 04:47:51;;;;;;;33.92;13.60;;;7.80;99.90;;;;;;4198077;28;20066;-89
2022/03/29 04:49:52;;;;;;;30.95;13.45;;;7.50;99.90;;;;;;4202561;28;20127;-88
2022/03/29 04:51:52;;;;;;;26.77;12.73;;;7.20;99.90;;;;;;4231772;28;20045;-88
2022/03/29 04:53:54;;;;;;;34.40;14.05;;;8.00;99.90;;;;;;4202534;28;20137;-89
2022/03/29 04:55:56;;;;;;;31.38;13.07;;;7.50;99.90;;;;;;4216691;28;20092;-89
2022/03/29 04:57:57;;;;;;;30.83;13.98;;;7.20;99.90;;;;;;4199387;28;20053;-89
2022/03/29 04:59:58;;;;;;;33.58;13.57;;;7.20;99.90;;;;;;4217734;28;20119;-89
2022/03/29 05:01:58;;;;;;;32.03;14.07;;;7.20;99.90;;;;;;4215658;28;20130;-89
2022/03/29 05:04:00;;;;;;;30.33;14.68;;;7.80;99.90;;;;;;4216965;28;20119;-89
2022/03/29 05:06:01;;;;;;;31.17;13.40;;;7.70;99.90;;;;;;4201404;28;20139;-89
2022/03/29 05:08:03;;;;;;;33.30;15.48;;;8.20;99.90;;;;;;4217348;28;20181;-88
2022/03/29 05:10:05;;;;;;;32.53;14.30;;;7.20;99.90;;;;;;4216544;28;20048;-88
2022/03/29 05:12:06;;;;;;;34.33;14.80;;;7.20;99.90;;;;;;4234124;28;20047;-90
2022/03/29 05:14:06;;;;;;;30.10;14.77;;;7.10;99.90;;;;;;4228666;28;20043;-89
2022/03/29 05:16:07;;;;;;;32.70;14.75;;;7.20;99.90;;;;;;4219165;28;20105;-90
2022/03/29 05:18:08;;;;;;;34.13;13.90;;;7.30;99.90;;;;;;4202112;28;20528;-91
2022/03/29 05:20:10;;;;;;;30.20;14.32;;;7.20;99.90;;;;;;4216825;28;20480;-89
2022/03/29 05:22:12;;;;;;;33.90;14.45;;;7.20;99.90;;;;;;4207852;28;20052;-89
2022/03/29 05:24:13;;;;;;;36.58;15.90;;;7.90;99.90;;;;;;4215766;28;20040;-89
2022/03/29 05:26:15;;;;;;;36.63;15.23;;;7.20;99.90;;;;;;4231218;28;20090;-90
2022/03/29 05:28:16;;;;;;;27.75;14.00;;;7.30;99.90;;;;;;4232537;28;20043;-90
2022/03/29 05:30:17;;;;;;;29.70;13.52;;;7.40;99.90;;;;;;4232169;28;20107;-89
2022/03/29 05:32:18;;;;;;;31.40;14.25;;;8.30;99.90;;;;;;4249282;27;20051;-88
2022/03/29 05:34:20;;;;;;;31.73;14.57;;;7.30;99.90;;;;;;4232254;28;20131;-90
2022/03/29 05:36:21;;;;;;;28.85;13.77;;;7.30;99.90;;;;;;4232344;28;20043;-89
2022/03/29 05:38:23;;;;;;;31.58;15.23;;;8.40;99.90;;;;;;4224078;28;20044;-90
2022/03/29 05:40:25;;;;;;;30.52;15.02;;;7.30;99.90;;;;;;4248692;27;20039;-90
2022/03/29 05:42:26;;;;;;;29.90;13.02;;;7.30;99.90;;;;;;4233948;28;20043;-90
2022/03/29 05:44:27;;;;;;;30.20;14.88;;;8.40;99.90;;;;;;4250722;27;20127;-90
2022/03/29 05:48:55;;;;;;;38.35;14.20;;;7.60;99.90;;;;;;4231987;28;20048;-90
2022/03/29 05:50:56;;;;;;;34.83;14.55;;;7.20;99.90;;;;;;4231329;28;20415;-88
2022/03/29 05:52:58;;;;;;;30.38;13.77;;;7.20;99.90;;;;;;4232191;28;20044;-88
2022/03/29 05:55:00;;;;;;;28.05;14.23;;;7.20;99.90;;;;;;4233346;28;20043;-89
2022/03/29 05:57:02;;;;;;;30.58;13.27;;;7.10;99.90;;;;;;4250948;27;20031;-89
2022/03/29 05:59:04;;;;;;;28.20;13.27;;;7.20;99.90;;;;;;4215325;28;20036;-89
2022/03/29 06:01:05;;;;;;;26.08;13.25;;;7.20;99.90;;;;;;4232159;28;20068;-89
2022/03/29 06:03:06;;;;;;;32.63;13.68;;;8.30;99.90;;;;;;4232812;28;20125;-89
2022/03/29 06:05:09;;;;;;;25.70;13.75;;;7.20;99.90;;;;;;4223102;28;20058;-90
2022/03/29 06:07:15;;;;;;;31.02;13.93;;;7.20;99.90;;;;;;4268278;27;20054;-88
2022/03/29 06:09:15;;;;;;;29.70;13.65;;;7.20;99.90;;;;;;4217009;28;20051;-89
2022/03/29 06:11:16;;;;;;;28.02;13.82;;;8.00;99.90;;;;;;4258847;27;20398;-89
2022/03/29 06:13:18;;;;;;;30.25;14.32;;;7.20;99.90;;;;;;4235195;28;20482;-89
2022/03/29 06:15:21;;;;;;;33.47;13.93;;;7.10;99.90;;;;;;4219364;28;20081;-89
2022/03/29 06:17:23;;;;;;;39.22;14.50;;;8.40;99.90;;;;;;4247548;28;20040;-89
2022/03/29 06:19:24;;;;;;;40.42;15.70;;;8.40;99.90;;;;;;4249919;28;20043;-88
2022/03/29 06:21:24;;;;;;;29.08;12.70;;;7.20;99.90;;;;;;4232166;28;20044;-89
2022/03/29 06:23:26;;;;;;;30.75;13.77;;;8.00;99.90;;;;;;4258372;28;20439;-90
2022/03/29 06:25:27;;;;;;;33.63;14.32;;;7.50;99.90;;;;;;4265139;27;20039;-88
2022/03/29 06:27:28;;;;;;;33.67;14.93;;;7.70;99.90;;;;;;4239924;28;20091;-88
2022/03/29 06:29:29;;;;;;;30.08;13.35;;;7.30;99.90;;;;;;4253958;27;20042;-89
2022/03/29 06:31:34;;;;;;;33.30;14.88;;;8.60;99.90;;;;;;4251805;27;20039;-88
2022/03/29 06:33:37;;;;;;;30.58;14.05;;;8.50;99.90;;;;;;4234652;28;20044;-88
2022/03/29 06:35:38;;;;;;;35.13;14.15;;;8.40;99.90;;;;;;4245700;27;20050;-86
2022/03/29 06:37:40;;;;;;;29.10;14.13;;;7.10;99.90;;;;;;4252963;27;20051;-88
2022/03/29 06:39:41;;;;;;;33.22;13.32;;;7.30;99.90;;;;;;4235239;28;20040;-88
2022/03/29 06:41:43;;;;;;;30.00;14.27;;;7.30;99.90;;;;;;4235048;28;20122;-88
2022/03/29 06:43:44;;;;;;;29.15;13.02;;;7.30;99.90;;;;;;4252023;27;20051;-88
2022/03/29 06:45:45;;;;;;;33.65;14.30;;;6.50;99.90;;;;;;4268476;27;20053;-88
2022/03/29 06:47:47;;;;;;;29.25;13.65;;;7.30;99.90;;;;;;4252201;27;20083;-88
2022/03/29 06:49:48;;;;;;;29.20;14.05;;;6.50;99.90;;;;;;4234097;28;20051;-87
2022/03/29 06:51:51;;;;;;;34.63;13.40;;;7.40;99.90;;;;;;4250684;27;20495;-86
2022/03/29 06:53:52;;;;;;;31.88;14.77;;;7.30;99.90;;;;;;4250583;27;20043;-87
2022/03/29 06:55:53;;;;;;;33.08;13.95;;;8.70;99.90;;;;;;4268466;27;20488;-87
2022/03/29 06:57:54;;;;;;;33.13;13.85;;;7.40;99.90;;;;;;4250727;27;20479;-87
2022/03/29 06:59:55;;;;;;;30.70;13.43;;;7.70;99.90;;;;;;4270362;27;20031;-89
2022/03/29 07:01:56;;;;;;;31.85;12.30;;;7.40;99.90;;;;;;4231087;28;20081;-89
2022/03/29 07:03:59;;;;;;;38.15;14.25;;;8.10;99.90;;;;;;4231301;28;20039;-89
2022/03/29 07:06:00;;;;;;;29.92;14.15;;;7.40;99.90;;;;;;4223558;28;20040;-89
2022/03/29 07:08:01;;;;;;;28.65;12.55;;;7.50;99.90;;;;;;4258090;27;20038;-89
2022/03/29 07:12:23;;;;;;;41.38;14.20;;;7.50;99.90;;;;;;4239974;27;20043;-90
2022/03/29 07:14:24;;;;;;;29.98;13.85;;;8.90;99.90;;;;;;4229623;28;20094;-90
2022/03/29 07:16:25;;;;;;;32.63;14.65;;;8.10;99.90;;;;;;4231248;28;20048;-91
2022/03/29 07:18:26;;;;;;;29.58;13.73;;;7.60;99.90;;;;;;4235646;27;20039;-89
2022/03/29 07:20:27;;;;;;;31.95;13.23;;;7.70;99.90;;;;;;4222212;28;20107;-90
2022/03/29 07:22:30;;;;;;;33.28;13.65;;;7.80;99.90;;;;;;4218721;28;20121;-88
2022/03/29 07:24:38;;;;;;;26.85;12.60;;;8.30;99.90;;;;;;4231674;28;20074;-89
2022/03/29 07:26:52;;;;;;;31.23;13.93;;;7.90;99.90;;;;;;4235068;28;20054;-90
2022/03/29 07:28:54;;;;;;;31.30;13.70;;;8.00;99.90;;;;;;4239557;28;20050;-90
2022/03/29 07:30:57;;;;;;;29.17;13.00;;;8.90;99.90;;;;;;4244224;28;20071;-90
2022/03/29 07:32:59;;;;;;;31.58;13.55;;;9.20;99.90;;;;;;4262603;28;20054;-91
2022/03/29 07:35:02;;;;;;;30.15;12.40;;;8.80;99.90;;;;;;4268692;28;20039;-91
2022/03/29 07:37:05;;;;;;;26.40;12.88;;;;;;;;;;4251561;28;20020;-90
2022/03/29 07:39:07;;;;;;;32.67;12.70;;;8.20;99.90;;;;;;4252087;28;20047;-90
2022/03/29 07:41:08;;;;;;;29.58;13.18;;;8.30;99.90;;;;;;4245180;28;20059;-90
2022/03/29 07:43:10;;;;;;;27.35;12.50;;;8.40;99.90;;;;;;4235270;28;20055;-90
2022/03/29 07:45:14;;;;;;;27.65;11.60;;;;;;;;;;4250845;28;20404;-93
2022/03/29 07:47:15;;;;;;;35.05;12.50;;;;;;;;;;4244483;28;20046;-91
2022/03/29 07:49:17;;;;;;;29.17;11.88;;;;;;;;;;4270602;27;20102;-89
2022/03/29 07:51:20;;;;;;;29.33;12.45;;;;;;;;;;4250863;28;20114;-89
2022/03/29 07:53:25;;;;;;;33.38;12.07;;;;;;;;;;4233700;28;20050;-87
2022/03/29 07:55:27;;;;;;;29.77;13.27;;;;;;;;;;4251243;28;20124;-89
2022/03/29 07:57:33;;;;;;;29.60;12.82;;;;;;;;;;4265172;27;20039;-90
2022/03/29 07:59:34;;;;;;;31.83;13.43;;;;;;;;;;4250550;28;20031;-92
2022/03/29 08:01:36;;;;;;;32.47;12.55;;;;;;;;;;4235936;28;20140;-91
2022/03/29 08:03:39;;;;;;;32.88;11.68;;;;;;;;;;4240202;28;20515;-92
2022/03/29 08:05:41;;;;;;;26.85;11.02;;;;;;;;;;4220975;28;20036;-92
2022/03/29 08:07:44;;;;;;;24.63;10.82;;;;;;;;;;4237954;28;20068;-93
2022/03/29 08:09:46;;;;;;;23.23;9.23;;;;;;;;;;4234763;28;20047;-91
2022/03/29 08:11:47;;;;;;;25.95;9.50;;;;;;;;;;4222596;28;20035;-88
2022/03/29 08:13:49;;;;;;;26.15;8.48;;;;;;;;;;4255413;27;20064;-88
2022/03/29 08:15:52;;;;;;;20.67;8.27;;;;;;;;;;4218104;28;20048;-87
2022/03/29 08:17:53;;;;;;;20.25;8.73;;;;;;;;;;4242061;28;20059;-89
2022/03/29 08:19:54;;;;;;;22.98;8.73;;;;;;;;;;4229630;28;20048;-90
2022/03/29 08:21:56;;;;;;;30.98;9.13;;;;;;;;;;4187042;28;1205035;-90
2022/03/29 08:23:57;;;;;;;28.33;9.68;;;;;;;;;;4246100;27;20048;-89
2022/03/29 08:25:59;;;;;;;18.85;7.78;;;;;;;;;;4236736;28;20528;-88
2022/03/29 08:28:02;;;;;;;23.33;8.35;;;;;;;;;;4219955;28;20131;-87
2022/03/29 08:30:03;;;;;;;17.20;7.07;;;;;;;;;;4229647;28;20395;-88
2022/03/29 08:32:04;;;;;;;20.33;7.35;;;;;;;;;;4234427;27;20063;-88
2022/03/29 08:34:06;;;;;;;25.30;8.73;;;;;;;;;;4238753;28;20517;-88
2022/03/29 08:36:07;;;;;;;18.35;6.85;;;;;;;;;;4234884;27;20126;-88
2022/03/29 08:38:08;;;;;;;22.80;7.40;;;;;;;;;;4235850;27;20130;-88
2022/03/29 08:40:13;;;;;;;27.33;7.90;;;;;;;;;;4236257;27;20156;-88
2022/03/29 08:42:14;;;;;;;23.75;7.30;;;;;;;;;;4236909;27;20458;-87
2022/03/29 08:44:15;;;;;;;20.52;7.88;;;;;;;;;;4238271;27;20081;-86
2022/03/29 08:46:16;;;;;;;30.23;6.72;;;;;;;;;;4246560;27;20055;-87
2022/03/29 08:48:18;;;;;;;20.35;8.35;;;;;;;;;;4236241;27;20189;-88
2022/03/29 08:50:20;;;;;;;20.65;6.10;;;;;;;;;;4228575;28;20100;-86
2022/03/29 08:52:22;;;;;;;16.20;6.30;;;;;;;;;;4235144;27;20049;-87
2022/03/29 08:54:24;;;;;;;23.92;7.38;;;;;;;;;;4237039;27;20038;-87
2022/03/29 08:56:25;;;;;;;18.23;6.45;;;;;;;;;;4245639;27;20039;-87
2022/03/29 08:58:26;;;;;;;19.20;6.60;;;;;;;;;;4244518;27;20546;-86
2022/03/29 09:00:27;;;;;;;18.85;6.13;;;;;;;;;;4236953;27;20476;-87
2022/03/29 09:02:33;;;;;;;24.25;6.53;;;;;;;;;;4243585;27;20191;-87
2022/03/29 09:04:35;;;;;;;16.00;6.10;;;;;;;;;;4246279;27;20434;-88
2022/03/29 09:06:55;;;;;;;16.00;5.97;;;;;;;;;;4237205;27;20587;-87
2022/03/29 09:08:57;;;;;;;25.88;6.78;;;;;;;;;;4241813;27;20117;-86
2022/03/29 09:11:02;;;;;;;17.58;6.50;;;;;;;;;;4236531;27;20137;-87
2022/03/29 09:13:23;;;;;;;23.67;6.22;;;;;;;;;;4235735;27;20039;-87
2022/03/29 09:15:35;;;;;;;23.50;6.63;;;;;;;;;;4239033;27;20054;-87
2022/03/29 09:17:39;;;;;;;17.35;6.22;;;;;;;;;;4224702;28;20052;-87
2022/03/29 09:19:52;;;;;;;16.95;6.10;;;;;;;;;;4238719;27;20118;-88
2022/03/29 09:21:55;;;;;;;23.92;6.35;;;;;;;;;;4221041;28;20052;-87
2022/03/29 09:24:17;;;;;;;22.33;7.53;;;;;;;;;;4237102;27;20043;-88
2022/03/29 09:26:27;;;;;;;19.80;6.72;;;;;;;;;;4240127;27;20495;-88
2022/03/29 09:28:38;;;;;;;20.25;6.80;;;;;;;;;;4231419;28;20130;-87
2022/03/29 09:30:41;;;;;;;21.55;6.78;;;;;;;;;;4237185;27;20503;-88
2022/03/29 09:32:52;;;;;;;22.90;5.45;;;;;;;;;;4233429;27;20123;-87
2022/03/29 09:35:08;;;;;;;20.20;5.95;;;;;;;;;;4244144;27;20127;-88
2022/03/29 09:37:09;;;;;;;27.38;5.55;;;;;;;;;;4234253;27;20031;-88
2022/03/29 09:39:29;;;;;;;13.40;5.57;;;;;;;;;;4234598;27;20054;-87
2022/03/29 09:41:32;;;;;;;22.08;5.47;;;;;;;;;;4223012;28;20181;-88
2022/03/29 09:43:36;;;;;;;14.45;4.85;;;;;;;;;;4234014;27;20035;-87
2022/03/29 09:45:41;;;;;;;17.63;4.53;;;;;;;;;;4219731;28;20127;-88
2022/03/29 09:47:43;;;;;;;15.10;5.22;;;;;;;;;;4241838;27;20081;-88
2022/03/29 09:49:52;;;;;;;20.10;5.80;;;;;;;;;;4231705;28;20044;-88
2022/03/29 09:52:26;;;;;;;15.25;5.65;;;;;;;;;;4240590;27;20407;-87
2022/03/29 09:54:27;;;;;;;19.27;4.93;;;;;;;;;;4198427;28;20051;-88
2022/03/29 09:56:30;;;;;;;17.13;4.82;;;;;;;;;;4233903;27;20075;-88
2022/03/29 09:58:31;;;;;;;28.42;6.47;;;;;;;;;;4243864;27;20039;-87
2022/03/29 10:00:38;;;;;;;22.40;5.45;;;;;;;;;;4236001;27;20048;-87
2022/03/29 10:02:40;;;;;;;18.05;5.15;;;;;;;;;;4232929;28;20055;-88
2022/03/29 10:04:42;;;;;;;17.60;5.60;;;;;;;;;;4219162;28;20597;-87
2022/03/29 10:06:52;;;;;;;14.05;5.32;;;;;;;;;;4230978;28;20048;-88
2022/03/29 10:11:18;;;;;;;16.00;4.90;;;;;;;;;;4245705;27;20051;-87
2022/03/29 10:13:23;;;;;;;19.40;5.28;;;;;;;;;;4236902;28;20043;-87
2022/03/29 10:15:26;;;;;;;17.50;5.35;;;;;;;;;;4237682;28;20380;-88
2022/03/29 10:17:27;;;;;;;22.35;5.43;;;;;;;;;;4238454;28;20058;-88
2022/03/29 10:19:30;;;;;;;15.02;4.93;;;;;;;;;;4235719;28;20086;-88
2022/03/29 10:21:31;;;;;;;21.08;5.72;;;;;;;;;;4241343;27;20054;-87
2022/03/29 10:23:34;;;;;;;12.35;4.40;;;;;;;;;;4239158;28;20493;-87
2022/03/29 10:25:38;;;;;;;19.55;5.20;;;;;;;;;;4236116;28;20100;-88
2022/03/29 10:27:39;;;;;;;17.48;5.05;;;;;;;;;;4222027;28;20591;-88
2022/03/29 10:29:42;;;;;;;15.93;4.15;;;;;;;;;;4256338;27;20047;-88
2022/03/29 10:32:00;;;;;;;15.68;4.68;;;;;;;;;;4219764;28;20043;-88
2022/03/29 10:34:12;;;;;;;12.73;4.50;;;;;;;;;;4240857;28;20179;-87
2022/03/29 10:36:14;;;;;;;16.52;5.15;;;;;;;;;;4229661;28;20381;-88
2022/03/29 10:38:17;;;;;;;19.98;4.60;;;;;;;;;;4224263;28;20057;-86
2022/03/29 10:40:37;;;;;;;17.00;4.40;;;;;;;;;;4253207;27;20040;-87
2022/03/29 10:42:44;;;;;;;24.05;5.20;;;;;;;;;;4240868;28;20043;-88
2022/03/29 10:44:59;;;;;;;13.05;4.88;;;;;;;;;;4241287;28;20042;-89
2022/03/29 10:47:02;;;;;;;30.17;4.63;;;;;;;;;;4224169;28;20515;-88
2022/03/29 10:49:39;;;;;;;12.35;4.22;;;;;;;;;;4251809;27;20087;-87
2022/03/29 10:51:40;;;;;;;21.13;4.07;;;;;;;;;;4175054;28;20452;-86
2022/03/29 10:53:45;;;;;;;13.10;3.53;;;;;;;;;;4217171;27;20078;-87
2022/03/29 10:55:46;;;;;;;16.48;4.40;;;;;;;;;;4252191;27;20110;-86
2022/03/29 10:58:06;;;;;;;21.15;5.15;;;;;;;;;;4252733;27;20095;-86
2022/03/29 11:00:10;;;;;;;15.32;5.15;;;;;;;;;;4220853;28;20046;-85
2022/03/29 11:02:13;;;;;;;12.52;4.15;;;;;;;;;;4255245;27;20078;-86
2022/03/29 11:04:16;;;;;;;13.70;4.93;;;;;;;;;;4215330;28;20043;-85
2022/03/29 11:06:17;;;;;;;18.02;4.40;;;;;;;;;;4254612;27;20376;-86
2022/03/29 11:08:19;;;;;;;15.00;5.70;;;;;;;;;;4253540;27;20043;-86